createdAt,value
2023-03-02T00:02:02.113Z,1.00
2023-03-02T00:04:31.300Z,1.50
2023-03-02T00:07:02.845Z,1.40
2023-03-02T00:09:30.717Z,0.90
2023-03-02T00:11:57.929Z,1.00
2023-03-02T00:14:24.611Z,1.30
2023-03-02T00:16:51.337Z,1.10
2023-03-02T00:19:18.221Z,0.70
2023-03-02T00:21:44.908Z,1.10
2023-03-02T00:24:12.049Z,1.00
2023-03-02T00:26:38.809Z,0.90
2023-03-02T00:29:05.677Z,1.10
2023-03-02T00:31:33.373Z,1.10
2023-03-02T00:34:00.296Z,0.80
2023-03-02T00:36:27.088Z,0.90
2023-03-02T00:38:53.786Z,0.90
2023-03-02T00:41:21.714Z,1.00
2023-03-02T00:43:48.990Z,0.80
2023-03-02T00:46:22.588Z,0.90
2023-03-02T00:48:49.847Z,1.10
2023-03-02T00:51:17.748Z,1.10
2023-03-02T00:53:44.962Z,0.90
2023-03-02T00:56:11.803Z,1.20
2023-03-02T00:58:40.539Z,1.10
2023-03-02T01:01:11.310Z,1.00
2023-03-02T01:03:40.579Z,1.00
2023-03-02T01:06:15.921Z,1.10
2023-03-02T01:08:42.691Z,1.30
2023-03-02T01:11:27.580Z,1.10
2023-03-02T01:13:54.388Z,1.10
2023-03-02T01:16:22.452Z,1.10
2023-03-02T01:18:49.173Z,1.00
2023-03-02T01:23:42.906Z,1.00
2023-03-02T01:26:09.722Z,0.80
2023-03-02T01:28:36.805Z,1.00
2023-03-02T01:31:04.606Z,0.90
2023-03-02T01:33:32.205Z,1.10
2023-03-02T01:35:59.066Z,1.10
2023-03-02T01:38:26.264Z,1.10
2023-03-02T01:40:53.082Z,1.10
2023-03-02T01:43:19.882Z,1.00
2023-03-02T01:45:57.097Z,1.60
2023-03-02T01:48:54.712Z,1.10
2023-03-02T01:51:29.898Z,1.00
2023-03-02T01:54:02.601Z,1.20
2023-03-02T01:56:36.285Z,1.40
2023-03-02T01:59:09.190Z,1.00
2023-03-02T02:01:39.699Z,1.10
2023-03-02T02:04:07.461Z,1.10
2023-03-02T02:06:40.665Z,1.20
2023-03-02T02:09:10.588Z,0.90
2023-03-02T02:11:37.349Z,1.10
2023-03-02T02:14:05.120Z,1.50
2023-03-02T02:16:34.856Z,1.20
2023-03-02T02:19:04.098Z,1.20
2023-03-02T02:21:30.803Z,1.10
2023-03-02T02:24:06.540Z,1.20
2023-03-02T02:26:38.755Z,1.30
2023-03-02T02:29:15.950Z,1.60
2023-03-02T02:32:12.526Z,1.40
2023-03-02T02:34:53.764Z,1.50
2023-03-02T02:37:22.609Z,1.30
2023-03-02T02:39:50.342Z,1.20
2023-03-02T02:42:40.013Z,1.40
2023-03-02T02:45:19.814Z,1.10
2023-03-02T02:47:47.633Z,1.40
2023-03-02T02:50:31.964Z,1.50
2023-03-02T02:53:12.517Z,1.50
2023-03-02T02:55:40.205Z,2.20
2023-03-02T02:58:20.041Z,1.60
2023-03-02T03:00:46.757Z,2.10
2023-03-02T03:03:30.883Z,1.70
2023-03-02T03:06:06.508Z,1.70
2023-03-02T03:09:02.443Z,1.30
2023-03-02T03:11:43.419Z,1.60
2023-03-02T03:14:24.932Z,2.10
2023-03-02T03:16:52.137Z,1.60
2023-03-02T03:19:26.270Z,2.40
2023-03-02T03:21:56.743Z,2.00
2023-03-02T03:24:25.514Z,1.90
2023-03-02T03:26:54.294Z,2.30
2023-03-02T03:29:25.557Z,2.10
2023-03-02T03:31:55.872Z,2.10
2023-03-02T03:34:24.184Z,2.30
2023-03-02T03:36:50.952Z,2.20
2023-03-02T03:39:18.137Z,2.10
2023-03-02T03:41:45.210Z,2.20
2023-03-02T03:44:12.709Z,2.10
2023-03-02T03:46:40.418Z,2.50
2023-03-02T03:49:07.140Z,3.40
2023-03-02T03:51:35.414Z,4.60
2023-03-02T03:54:05.553Z,6.20
2023-03-02T03:56:42.222Z,7.30
2023-03-02T03:59:10.908Z,6.80
2023-03-02T04:01:48.315Z,6.80
2023-03-02T04:04:20.528Z,6.60
2023-03-02T04:06:48.100Z,6.50
2023-03-02T04:09:18.020Z,6.40
2023-03-02T04:11:47.773Z,6.30
2023-03-02T04:14:16.400Z,7.30
2023-03-02T04:16:44.323Z,7.60
2023-03-02T04:19:12.632Z,6.90
2023-03-02T04:21:47.429Z,4.90
2023-03-02T04:24:17.924Z,4.90
2023-03-02T04:26:45.862Z,6.20
2023-03-02T04:29:12.836Z,5.50
2023-03-02T04:31:40.271Z,5.30
2023-03-02T04:34:07.674Z,5.10
2023-03-02T04:36:38.829Z,3.50
2023-03-02T04:39:08.772Z,2.70
2023-03-02T04:41:36.139Z,2.50
2023-03-02T04:44:03.039Z,2.40
2023-03-02T04:46:29.893Z,2.50
2023-03-02T04:48:56.860Z,1.70
2023-03-02T04:51:27.833Z,2.30
2023-03-02T04:53:56.973Z,1.90
2023-03-02T04:56:23.704Z,1.80
2023-03-02T04:58:50.689Z,1.90
2023-03-02T05:01:18.763Z,2.10
2023-03-02T05:03:45.658Z,1.90
2023-03-02T05:06:14.207Z,2.20
2023-03-02T05:08:41.110Z,1.70
2023-03-02T05:11:08.385Z,2.00
2023-03-02T05:13:35.965Z,2.40
2023-03-02T05:16:02.842Z,1.60
2023-03-02T05:18:30.041Z,1.90
2023-03-02T05:20:57.232Z,1.80
2023-03-02T05:23:25.495Z,1.80
2023-03-02T05:25:55.097Z,1.90
2023-03-02T05:28:24.214Z,1.70
2023-03-02T05:30:51.284Z,1.60
2023-03-02T05:33:18.896Z,1.90
2023-03-02T05:35:46.204Z,1.90
2023-03-02T05:38:13.277Z,1.90
2023-03-02T05:40:42.429Z,2.80
2023-03-02T05:43:09.657Z,1.90
2023-03-02T05:45:38.415Z,2.00
2023-03-02T05:48:06.117Z,1.80
2023-03-02T05:50:33.232Z,1.90
2023-03-02T05:53:02.443Z,2.10
2023-03-02T05:55:29.602Z,2.40
2023-03-02T05:57:56.922Z,2.20
2023-03-02T06:00:24.049Z,2.00
2023-03-02T06:02:50.859Z,2.40
2023-03-02T06:05:19.641Z,2.00
2023-03-02T06:07:46.555Z,2.10
2023-03-02T06:10:14.090Z,2.00
2023-03-02T06:12:41.580Z,2.30
2023-03-02T06:15:09.264Z,2.60
2023-03-02T06:17:36.229Z,2.50
2023-03-02T06:20:06.169Z,2.40
2023-03-02T06:22:32.815Z,2.80
2023-03-02T06:27:26.183Z,2.30
2023-03-02T06:29:53.429Z,2.40
2023-03-02T06:32:20.317Z,2.30
2023-03-02T06:34:47.211Z,2.40
2023-03-02T06:37:14.019Z,2.90
2023-03-02T06:39:40.771Z,3.10
2023-03-02T06:42:07.486Z,2.70
2023-03-02T06:44:34.258Z,2.60
2023-03-02T06:47:00.935Z,2.50
2023-03-02T06:49:27.783Z,2.50
2023-03-02T06:51:54.450Z,2.60
2023-03-02T06:54:23.136Z,2.60
2023-03-02T06:56:50.664Z,3.00
2023-03-02T06:59:17.296Z,3.10
2023-03-02T07:01:44.090Z,3.20
2023-03-02T07:04:10.860Z,3.10
2023-03-02T07:06:37.717Z,3.10
2023-03-02T07:09:04.656Z,3.00
2023-03-02T07:11:31.621Z,2.90
2023-03-02T07:14:00.969Z,3.50
2023-03-02T07:16:27.968Z,3.10
2023-03-02T07:18:54.700Z,3.10
2023-03-02T07:21:21.505Z,3.00
2023-03-02T07:23:48.140Z,2.90
2023-03-02T07:28:43.455Z,2.70
2023-03-02T07:31:11.301Z,3.00
2023-03-02T07:33:39.454Z,3.40
2023-03-02T07:36:08.317Z,3.50
2023-03-02T07:38:37.631Z,3.00
2023-03-02T07:41:09.402Z,2.90
2023-03-02T07:43:36.751Z,3.00
2023-03-02T07:46:04.943Z,3.40
2023-03-02T07:48:33.295Z,3.40
2023-03-02T07:51:02.384Z,3.60
2023-03-02T07:53:29.588Z,4.50
2023-03-02T07:55:56.469Z,3.90
2023-03-02T07:58:24.289Z,3.70
2023-03-02T08:00:51.213Z,4.20
2023-03-02T08:03:17.836Z,3.80
2023-03-02T08:08:11.021Z,3.80
2023-03-02T08:10:37.785Z,3.60
2023-03-02T08:13:05.083Z,3.60
2023-03-02T08:15:31.773Z,3.60
2023-03-02T08:17:58.503Z,3.90
2023-03-02T08:20:25.556Z,4.50
2023-03-02T08:22:52.308Z,4.30
2023-03-02T08:25:19.192Z,4.40
2023-03-02T08:27:46.369Z,5.00
2023-03-02T08:30:13.655Z,5.40
2023-03-02T08:32:40.792Z,5.40
2023-03-02T08:35:07.898Z,4.00
2023-03-02T08:37:34.744Z,4.00
2023-03-02T08:40:01.419Z,3.40
2023-03-02T08:42:28.093Z,3.40
2023-03-02T08:44:54.925Z,3.40
2023-03-02T08:47:21.669Z,3.70
2023-03-02T08:49:49.918Z,4.70
2023-03-02T08:52:16.536Z,5.10
2023-03-02T08:54:43.728Z,6.60
2023-03-02T08:57:12.017Z,7.00
2023-03-02T08:59:38.947Z,4.50
2023-03-02T09:02:05.661Z,5.20
2023-03-02T09:04:32.541Z,3.70
2023-03-02T09:06:59.245Z,3.40
2023-03-02T09:09:26.074Z,3.20
2023-03-02T09:11:52.753Z,3.70
2023-03-02T09:14:19.567Z,3.60
2023-03-02T09:16:47.077Z,3.80
2023-03-02T09:19:14.439Z,3.40
2023-03-02T09:21:41.208Z,3.90
2023-03-02T09:24:08.150Z,3.50
2023-03-02T09:26:35.185Z,3.60
2023-03-02T09:29:01.975Z,3.20
2023-03-02T09:31:30.363Z,3.10
2023-03-02T09:33:57.443Z,2.90
2023-03-02T09:36:26.082Z,2.90
2023-03-02T09:38:53.801Z,3.00
2023-03-02T09:41:20.479Z,2.80
2023-03-02T09:44:01.963Z,3.30
2023-03-02T09:46:44.333Z,2.80
2023-03-02T09:49:16.832Z,3.00
2023-03-02T09:54:25.446Z,3.10
2023-03-02T09:56:57.678Z,3.00
2023-03-02T09:59:38.430Z,3.10
2023-03-02T10:02:26.938Z,3.00
2023-03-02T10:04:57.199Z,3.00
2023-03-02T10:07:32.684Z,3.40
2023-03-02T10:10:23.020Z,3.20
2023-03-02T10:13:20.553Z,3.30
2023-03-02T10:16:16.466Z,2.80
2023-03-02T10:18:55.424Z,1.80
2023-03-02T10:21:29.974Z,2.00
2023-03-02T10:23:59.177Z,1.30
2023-03-02T10:26:59.884Z,1.40
2023-03-02T10:29:55.905Z,1.20
2023-03-02T10:32:31.794Z,1.10
2023-03-02T10:35:02.320Z,1.00
2023-03-02T10:37:30.961Z,0.80
2023-03-02T10:39:57.761Z,1.20
2023-03-02T10:42:33.846Z,1.10
2023-03-02T10:45:21.553Z,1.20
2023-03-02T10:47:48.269Z,1.20
2023-03-02T10:50:21.975Z,1.00
2023-03-02T10:52:59.556Z,1.00
2023-03-02T10:55:27.906Z,1.30
2023-03-02T10:58:07.223Z,1.40
2023-03-02T11:00:35.304Z,1.20
2023-03-02T11:03:06.665Z,1.30
2023-03-02T11:05:36.530Z,1.40
2023-03-02T11:08:03.213Z,1.10
2023-03-02T11:10:36.850Z,1.10
2023-03-02T11:13:17.412Z,1.10
2023-03-02T11:15:47.825Z,1.10
2023-03-02T11:18:38.200Z,1.20
2023-03-02T11:21:09.494Z,1.10
2023-03-02T11:23:55.970Z,1.40
2023-03-02T11:26:28.966Z,0.90
2023-03-02T11:29:00.825Z,1.00
2023-03-02T11:31:41.369Z,1.10
2023-03-02T11:34:24.692Z,1.40
2023-03-02T11:37:15.920Z,1.20
2023-03-02T11:39:57.100Z,1.10
2023-03-02T11:42:32.255Z,0.90
2023-03-02T11:45:03.956Z,1.20
2023-03-02T11:47:32.490Z,1.20
2023-03-02T11:50:05.259Z,1.30
2023-03-02T11:52:36.828Z,1.00
2023-03-02T11:55:26.297Z,1.10
2023-03-02T11:57:55.472Z,1.30
2023-03-02T12:00:30.440Z,1.60
2023-03-02T12:03:05.069Z,1.20
2023-03-02T12:05:38.088Z,1.30
2023-03-02T12:08:27.585Z,1.80
2023-03-02T12:11:05.816Z,1.30
2023-03-02T12:13:38.892Z,1.20
2023-03-02T12:16:35.943Z,1.50
2023-03-02T12:19:24.871Z,1.30
2023-03-02T12:22:02.404Z,1.10
2023-03-02T12:24:34.408Z,1.10
2023-03-02T12:27:15.387Z,1.30
2023-03-02T12:29:49.801Z,1.10
2023-03-02T12:32:19.337Z,1.00
2023-03-02T12:34:59.377Z,1.00
2023-03-02T12:37:30.818Z,1.00
2023-03-02T12:40:28.571Z,0.90
2023-03-02T12:43:23.121Z,1.20
2023-03-02T12:46:06.796Z,1.30
2023-03-02T12:49:08.754Z,1.10
2023-03-02T12:52:00.898Z,1.40
2023-03-02T12:54:33.102Z,1.50
2023-03-02T12:57:18.658Z,1.60
2023-03-02T12:59:56.636Z,1.60
2023-03-02T13:02:32.738Z,1.40
2023-03-02T13:05:02.923Z,1.90
2023-03-02T13:07:41.935Z,1.70
2023-03-02T13:10:36.143Z,1.60
2023-03-02T13:13:15.283Z,1.40
2023-03-02T13:16:00.100Z,1.30
2023-03-02T13:18:32.802Z,1.40
2023-03-02T13:21:04.647Z,1.70
2023-03-02T13:23:33.485Z,1.60
2023-03-02T13:26:03.644Z,1.20
2023-03-02T13:28:38.954Z,1.20
2023-03-02T13:31:18.135Z,1.80
2023-03-02T13:33:46.880Z,1.90
2023-03-02T13:36:21.641Z,1.80
2023-03-02T13:38:51.408Z,1.50
2023-03-02T13:41:26.398Z,1.60
2023-03-02T13:43:53.347Z,1.40
2023-03-02T13:46:20.128Z,1.40
2023-03-02T13:49:09.827Z,1.50
2023-03-02T13:51:40.718Z,1.60
2023-03-02T13:54:18.651Z,1.30
2023-03-02T13:56:45.439Z,1.60
2023-03-02T13:59:17.714Z,1.40
2023-03-02T14:01:44.775Z,1.50
2023-03-02T14:04:13.353Z,1.40
2023-03-02T14:06:40.126Z,1.10
2023-03-02T14:09:06.846Z,1.30
2023-03-02T14:11:41.577Z,1.40
2023-03-02T14:14:14.669Z,1.00
2023-03-02T14:16:41.740Z,0.90
2023-03-02T14:19:13.705Z,1.10
2023-03-02T14:21:42.159Z,1.20
2023-03-02T14:24:09.166Z,1.40
2023-03-02T14:26:44.081Z,1.00
2023-03-02T14:29:27.109Z,1.80
2023-03-02T14:31:55.479Z,1.50
2023-03-02T14:34:22.634Z,1.20
2023-03-02T14:36:52.796Z,1.40
2023-03-02T14:39:34.253Z,2.00
2023-03-02T14:42:01.290Z,1.80
2023-03-02T14:44:28.090Z,1.80
2023-03-02T14:46:55.035Z,1.30
2023-03-02T14:49:21.950Z,1.50
2023-03-02T14:52:19.449Z,1.20
2023-03-02T14:54:54.237Z,1.80
2023-03-02T14:57:26.778Z,1.90
2023-03-02T15:02:26.120Z,2.00
2023-03-02T15:07:25.336Z,1.40
2023-03-02T15:09:52.216Z,1.20
2023-03-02T15:12:18.875Z,1.30
2023-03-02T15:14:45.573Z,1.50
2023-03-02T15:17:12.418Z,1.20
2023-03-02T15:19:39.106Z,1.70
2023-03-02T15:22:06.520Z,1.30
2023-03-02T15:24:33.664Z,1.60
2023-03-02T15:27:00.457Z,1.60
2023-03-02T15:29:27.123Z,1.30
2023-03-02T15:31:54.044Z,1.20
2023-03-02T15:34:21.183Z,1.90
2023-03-02T15:36:47.854Z,2.00
2023-03-02T15:39:14.776Z,1.80
2023-03-02T15:41:44.709Z,2.00
2023-03-02T15:44:22.756Z,2.00
2023-03-02T15:46:51.861Z,2.00
2023-03-02T15:49:22.812Z,1.80
2023-03-02T15:51:54.559Z,2.00
2023-03-02T15:54:22.071Z,1.90
2023-03-02T15:56:53.268Z,2.20
2023-03-02T15:59:25.490Z,1.70
2023-03-02T16:01:52.655Z,1.80
2023-03-02T16:04:19.925Z,2.10
2023-03-02T16:06:46.538Z,2.40
2023-03-02T16:09:13.206Z,2.10
2023-03-02T16:11:39.933Z,1.90
2023-03-02T16:14:06.665Z,3.30
2023-03-02T16:16:33.432Z,2.80
2023-03-02T16:19:00.130Z,2.60
2023-03-02T16:21:28.678Z,2.60
2023-03-02T16:24:03.149Z,2.70
2023-03-02T16:26:31.218Z,2.90
2023-03-02T16:28:58.700Z,2.80
2023-03-02T16:31:26.910Z,2.60
2023-03-02T16:33:55.897Z,3.10
2023-03-02T16:36:22.880Z,2.90
2023-03-02T16:38:49.761Z,3.40
2023-03-02T16:41:22.164Z,3.20
2023-03-02T16:43:52.454Z,3.80
2023-03-02T16:46:20.241Z,4.00
2023-03-02T16:48:48.333Z,4.10
2023-03-02T16:51:16.390Z,4.50
2023-03-02T16:53:43.521Z,4.40
2023-03-02T16:56:11.793Z,3.80
2023-03-02T16:58:39.777Z,4.20
2023-03-02T17:01:09.052Z,4.10
2023-03-02T17:03:36.609Z,4.70
2023-03-02T17:06:05.590Z,4.20
2023-03-02T17:08:32.332Z,3.70
2023-03-02T17:10:59.040Z,4.50
2023-03-02T17:13:25.677Z,4.90
2023-03-02T17:15:53.068Z,5.90
2023-03-02T17:18:19.944Z,5.30
2023-03-02T17:20:46.610Z,5.50
2023-03-02T17:23:14.291Z,7.00
2023-03-02T17:25:41.049Z,6.60
2023-03-02T17:28:08.509Z,5.40
2023-03-02T17:30:35.237Z,4.70
2023-03-02T17:33:01.992Z,4.90
2023-03-02T17:35:28.684Z,5.30
2023-03-02T17:37:55.553Z,4.90
2023-03-02T17:40:22.340Z,5.00
2023-03-02T17:42:49.077Z,5.10
2023-03-02T17:45:24.442Z,5.90
2023-03-02T17:47:53.253Z,8.90
2023-03-02T17:50:22.198Z,10.70
2023-03-02T17:52:49.299Z,9.90
2023-03-02T17:55:16.380Z,12.70
2023-03-02T17:57:43.219Z,9.50
2023-03-02T18:00:14.537Z,5.90
2023-03-02T18:02:41.381Z,5.20
2023-03-02T18:05:10.144Z,5.80
2023-03-02T18:07:37.611Z,5.10
2023-03-02T18:10:05.984Z,6.30
2023-03-02T18:12:32.887Z,5.30
2023-03-02T18:14:59.609Z,4.80
2023-03-02T18:17:26.375Z,4.70
2023-03-02T18:19:53.240Z,4.80
2023-03-02T18:22:21.904Z,5.10
2023-03-02T18:24:50.557Z,4.00
2023-03-02T18:27:17.823Z,4.50
2023-03-02T18:29:44.589Z,4.80
2023-03-02T18:32:12.474Z,4.90
2023-03-02T18:34:39.332Z,5.50
2023-03-02T18:37:06.086Z,4.60
2023-03-02T18:39:32.796Z,5.20
2023-03-02T18:41:59.948Z,5.50
2023-03-02T18:44:28.483Z,6.00
2023-03-02T18:46:56.103Z,5.30
2023-03-02T18:49:23.713Z,4.90
2023-03-02T18:51:50.618Z,4.80
2023-03-02T18:54:17.437Z,4.60
2023-03-02T18:56:44.220Z,5.10
2023-03-02T18:59:11.598Z,5.10
2023-03-02T19:01:38.383Z,4.70
2023-03-02T19:04:05.987Z,4.70
2023-03-02T19:06:33.557Z,5.40
2023-03-02T19:09:00.600Z,4.70
2023-03-02T19:11:27.334Z,5.10
2023-03-02T19:13:54.202Z,5.50
2023-03-02T19:16:21.001Z,5.60
2023-03-02T19:18:48.759Z,5.50
2023-03-02T19:21:16.288Z,5.40
2023-03-02T19:23:44.556Z,6.10
2023-03-02T19:26:12.390Z,5.50
2023-03-02T19:28:39.990Z,5.60
2023-03-02T19:31:08.937Z,6.00
2023-03-02T19:33:35.864Z,6.30
2023-03-02T19:36:02.736Z,5.50
2023-03-02T19:38:29.495Z,5.40
2023-03-02T19:40:58.024Z,5.70
2023-03-02T19:43:26.501Z,5.10
2023-03-02T19:45:53.292Z,6.60
2023-03-02T19:48:20.378Z,8.90
2023-03-02T19:50:47.515Z,6.10
2023-03-02T19:53:17.055Z,5.50
2023-03-02T19:55:44.545Z,5.40
2023-03-02T19:58:17.098Z,6.00
2023-03-02T20:00:45.211Z,5.40
2023-03-02T20:03:13.136Z,5.10
2023-03-02T20:05:40.039Z,4.40
2023-03-02T20:08:08.773Z,4.70
2023-03-02T20:10:39.412Z,4.20
2023-03-02T20:13:07.515Z,4.50
2023-03-02T20:15:38.186Z,4.70
2023-03-02T20:18:07.970Z,5.00
2023-03-02T20:20:34.808Z,4.70
2023-03-02T20:23:01.601Z,5.10
2023-03-02T20:25:28.723Z,4.10
2023-03-02T20:27:55.724Z,5.30
2023-03-02T20:30:31.826Z,4.70
2023-03-02T20:32:59.577Z,5.30
2023-03-02T20:35:28.681Z,5.30
2023-03-02T20:37:56.976Z,5.40
2023-03-02T20:40:25.133Z,3.60
2023-03-02T20:42:54.622Z,4.80
2023-03-02T20:45:21.956Z,5.00
2023-03-02T20:47:54.781Z,4.70
2023-03-02T20:50:24.995Z,4.60
2023-03-02T20:52:51.721Z,5.00
2023-03-02T20:55:19.145Z,4.70
2023-03-02T20:57:47.916Z,5.50
2023-03-02T21:00:22.721Z,5.10
2023-03-02T21:02:50.153Z,5.80
2023-03-02T21:05:17.986Z,5.50
2023-03-02T21:07:47.118Z,5.30
2023-03-02T21:10:21.692Z,5.10
2023-03-02T21:12:50.718Z,15.70
2023-03-02T21:15:20.327Z,8.50
2023-03-02T21:17:47.282Z,5.60
2023-03-02T21:20:16.000Z,4.70
2023-03-02T21:22:45.456Z,4.70
2023-03-02T21:25:12.602Z,5.00
2023-03-02T21:27:40.210Z,4.80
2023-03-02T21:30:10.509Z,4.50
2023-03-02T21:32:37.288Z,4.30
2023-03-02T21:35:04.373Z,4.40
2023-03-02T21:37:31.039Z,4.20
2023-03-02T21:39:58.985Z,4.60
2023-03-02T21:42:25.778Z,4.20
2023-03-02T21:44:52.448Z,4.30
2023-03-02T21:47:19.339Z,4.60
2023-03-02T21:49:47.036Z,4.00
2023-03-02T21:52:13.784Z,4.30
2023-03-02T21:54:40.433Z,4.50
2023-03-02T21:59:37.487Z,3.90
2023-03-02T22:02:05.073Z,4.00
2023-03-02T22:04:32.187Z,4.40
2023-03-02T22:06:59.641Z,3.90
2023-03-02T22:11:52.931Z,3.40
2023-03-02T22:14:20.460Z,4.00
2023-03-02T22:16:48.250Z,3.90
2023-03-02T22:19:25.853Z,4.00
2023-03-02T22:21:54.809Z,3.60
2023-03-02T22:24:29.590Z,3.60
2023-03-02T22:27:30.088Z,3.60
2023-03-02T22:29:59.381Z,3.00
2023-03-02T22:32:38.501Z,3.30
2023-03-02T22:35:23.389Z,2.90
2023-03-02T22:37:52.045Z,3.30
2023-03-02T22:40:18.730Z,3.30
2023-03-02T22:45:14.888Z,3.30
2023-03-02T22:47:42.971Z,3.20
2023-03-02T22:50:28.382Z,4.10
2023-03-02T22:52:56.849Z,3.60
2023-03-02T22:55:43.466Z,4.20
2023-03-02T22:58:46.429Z,3.90
2023-03-02T23:01:23.494Z,3.80
2023-03-02T23:03:57.235Z,3.40
2023-03-02T23:06:32.314Z,3.70
2023-03-02T23:09:02.115Z,3.20
2023-03-02T23:11:31.664Z,3.80
2023-03-02T23:14:01.120Z,2.70
2023-03-02T23:16:34.256Z,3.60
2023-03-02T23:19:02.591Z,2.60
2023-03-02T23:21:39.650Z,2.90
2023-03-02T23:24:07.834Z,3.60
2023-03-02T23:26:34.916Z,2.90
2023-03-02T23:29:01.641Z,2.80
2023-03-02T23:31:28.293Z,3.00
2023-03-02T23:36:21.665Z,3.40
2023-03-02T23:38:50.026Z,3.20
2023-03-02T23:41:17.361Z,4.00
2023-03-02T23:43:44.148Z,3.20
2023-03-02T23:46:14.425Z,3.60
2023-03-02T23:48:42.679Z,3.10
2023-03-02T23:51:10.028Z,3.00
2023-03-02T23:53:36.720Z,3.30
2023-03-02T23:58:30.057Z,2.90
